Time;durP1;ratioP1;P1;durP2;ratioP2;P2;SDS_P1;SDS_P2;PMS_P1;PMS_P2;Temp;Humidity;BMP_temperature;BMP_pressure;BME280_temperature;BME280_humidity;BME280_pressure;Samples;Min_cycle;Max_cycle;Signal;HPM_P1;HPM_P2
2022/11/11 00:00:21;;;;;;;11.43;7.85;;;;;;;9.31;99.96;102845.28;5093783;28;20049;-80
2022/11/11 00:03:06;;;;;;;13.20;7.93;;;;;;;9.35;100.00;102838.06;5119054;27;20043;-80
2022/11/11 00:05:51;;;;;;;13.52;8.05;;;;;;;9.36;100.00;102831.59;5114587;28;20048;-80
2022/11/11 00:08:36;;;;;;;17.60;8.13;;;;;;;9.40;99.88;102831.63;5113270;28;20484;-80
2022/11/11 00:11:21;;;;;;;15.57;8.30;;;;;;;9.42;99.81;102829.34;5113782;28;20076;-80
2022/11/11 00:14:06;;;;;;;14.20;8.48;;;;;;;9.44;100.00;102828.97;5074514;28;20049;-81
2022/11/11 00:26:09;;;;;;;14.85;10.20;;;;;;;9.53;99.61;102846.06;5090193;28;20053;-79
2022/11/11 00:29:14;;;;;;;17.35;10.13;;;;;;;9.54;99.49;102844.16;5092013;28;20060;-81
2022/11/11 00:38:44;;;;;;;17.63;11.48;;;;;;;9.57;99.81;102835.41;5092525;28;20052;-80
2022/11/11 00:41:22;;;;;;;12.77;10.15;;;;;;;9.57;99.71;102838.06;5094748;28;20084;-81
2022/11/11 00:44:07;;;;;;;15.70;10.70;;;;;;;9.57;99.77;102835.41;5092654;28;20045;-80
2022/11/11 00:53:12;;;;;;;17.48;10.85;;;;;;;9.60;99.72;102834.63;5092838;28;20049;-80
2022/11/11 00:55:57;;;;;;;17.95;11.20;;;;;;;9.60;99.82;102843.38;5091539;28;20053;-80
2022/11/11 00:58:42;;;;;;;20.45;11.55;;;;;;;9.61;99.82;102831.59;5092909;28;20477;-80
2022/11/11 01:01:27;;;;;;;17.08;10.68;;;;;;;9.61;99.72;102831.59;5092497;28;20056;-80
2022/11/11 01:04:13;;;;;;;15.68;12.00;;;;;;;9.61;99.64;102820.94;5094305;28;20068;-80
2022/11/11 01:06:58;;;;;;;17.65;11.40;;;;;;;9.62;99.72;102819.81;5091774;28;20062;-80
2022/11/11 01:09:43;;;;;;;23.23;12.43;;;;;;;9.63;99.82;102815.25;5093363;28;20053;-80
2022/11/11 01:12:28;;;;;;;18.58;12.70;;;;;;;9.65;99.65;102827.03;5093919;28;20049;-80
2022/11/11 01:15:13;;;;;;;22.35;13.38;;;;;;;9.66;99.52;102825.88;5091369;28;20061;-80
2022/11/11 01:17:58;;;;;;;21.20;13.00;;;;;;;9.65;99.35;102827.03;5093040;28;20477;-80
2022/11/11 01:20:43;;;;;;;29.13;13.75;;;;;;;9.66;99.69;102820.56;5093537;28;20123;-81
2022/11/11 01:23:30;;;;;;;18.83;13.48;;;;;;;9.67;99.82;102827.41;5093374;28;20060;-80
2022/11/11 01:26:18;;;;;;;22.45;14.57;;;;;;;9.67;99.75;102821.31;5093704;28;20470;-81
2022/11/11 01:29:03;;;;;;;22.63;13.73;;;;;;;9.67;99.82;102822.09;5093228;28;20044;-82
2022/11/11 01:31:48;;;;;;;23.98;14.48;;;;;;;9.68;99.81;102820.94;5091029;28;20080;-81
2022/11/11 01:34:33;;;;;;;19.95;13.90;;;;;;;9.68;99.64;102814.88;5092137;28;20045;-80
2022/11/11 01:37:18;;;;;;;27.52;14.77;;;;;;;9.67;99.59;102808.03;5093816;28;20088;-81
2022/11/11 01:40:04;;;;;;;25.27;15.70;;;;;;;9.66;99.94;102809.94;5091704;28;20552;-80
2022/11/11 01:43:04;;;;;;;26.70;14.25;;;;;;;9.66;99.73;102814.47;5093632;28;20044;-81
2022/11/11 01:46:00;;;;;;;24.63;15.27;;;;;;;9.65;99.53;102813.72;5093789;28;20067;-79
2022/11/11 01:52:10;;;;;;;22.02;14.90;;;;;;;9.65;99.07;102826.25;5093182;28;20123;-81
2022/11/11 01:55:04;;;;;;;22.92;15.15;;;;;;;9.65;99.38;102837.66;5091191;28;20139;-79
2022/11/11 01:57:56;;;;;;;25.60;15.52;;;;;;;9.66;99.08;102831.19;5092603;28;20052;-79
2022/11/11 02:00:41;;;;;;;26.85;16.55;;;;;;;9.66;99.17;102836.53;5091596;28;20783;-79
2022/11/11 02:03:30;;;;;;;24.83;16.00;;;;;;;9.65;99.56;102837.66;5092244;28;20055;-79
2022/11/11 02:06:15;;;;;;;25.73;16.15;;;;;;;9.64;99.27;102841.47;5093468;28;20378;-80
2022/11/11 02:09:03;;;;;;;25.90;16.67;;;;;;;9.64;99.71;102833.47;5090752;28;20566;-79
2022/11/11 02:14:58;;;;;;;23.27;16.10;;;;;;;9.65;99.44;102829.69;5093292;28;20095;-79
2022/11/11 02:17:46;;;;;;;20.17;15.23;;;;;;;9.65;99.34;102826.25;5090934;28;20056;-79
2022/11/11 02:20:43;;;;;;;26.98;17.63;;;;;;;9.65;99.54;102828.94;5092083;28;20097;-79
2022/11/11 02:24:03;;;;;;;23.70;16.60;;;;;;;9.66;99.47;102825.88;5090681;28;20044;-79
2022/11/11 02:26:50;;;;;;;32.60;16.02;;;;;;;9.66;99.15;102828.53;5092348;28;20049;-79
2022/11/11 02:29:46;;;;;;;24.85;16.40;;;;;;;9.66;99.26;102822.47;5091478;28;20445;-80
2022/11/11 02:32:31;;;;;;;28.20;16.83;;;;;;;9.67;99.48;102818.66;5091619;28;20061;-80
2022/11/11 02:35:20;;;;;;;27.05;17.55;;;;;;;9.67;99.44;102824.75;5092744;28;20093;-80
2022/11/11 02:38:07;;;;;;;26.58;16.55;;;;;;;9.66;99.40;102823.22;5090124;28;20102;-79
2022/11/11 02:43:56;;;;;;;22.77;16.08;;;;;;;9.64;99.38;102816.75;5092421;28;20041;-79
2022/11/11 02:46:41;;;;;;;27.60;16.20;;;;;;;9.63;99.67;102820.56;5090947;28;20480;-80
2022/11/11 02:49:26;;;;;;;26.08;15.73;;;;;;;9.64;99.46;102825.50;5091466;28;20096;-79
2022/11/11 02:52:11;;;;;;;29.65;16.63;;;;;;;9.63;99.68;102826.66;5092835;28;20056;-79
2022/11/11 02:54:56;;;;;;;28.65;16.70;;;;;;;9.63;99.63;102825.88;5090368;28;20044;-79
2022/11/11 02:57:41;;;;;;;28.80;16.15;;;;;;;9.62;99.87;102827.03;5091519;28;20510;-80
2022/11/11 03:00:26;;;;;;;28.70;16.48;;;;;;;9.61;99.90;102828.94;5092607;28;20505;-80
2022/11/11 03:03:12;;;;;;;25.45;16.33;;;;;;;9.60;99.45;102827.41;5090220;28;20040;-80
2022/11/11 03:05:57;;;;;;;28.30;17.13;;;;;;;9.60;99.51;102819.44;5090055;28;20562;-79
2022/11/11 03:08:42;;;;;;;29.00;16.45;;;;;;;9.60;99.11;102819.44;5092519;28;20136;-79
2022/11/11 03:11:28;;;;;;;19.25;16.42;;;;;;;9.61;99.58;102828.16;5090432;28;20045;-80
2022/11/11 03:14:13;;;;;;;27.27;17.30;;;;;;;9.60;99.38;102832.72;5091115;28;20040;-79
2022/11/11 03:23:08;;;;;;;21.42;16.17;;;;;;;9.57;99.58;102844.16;5091534;28;20053;-79
2022/11/11 03:25:53;;;;;;;21.98;16.15;;;;;;;9.54;99.73;102838.84;5092110;28;20401;-79
2022/11/11 03:28:42;;;;;;;23.08;16.70;;;;;;;9.51;99.85;102845.66;5090693;28;20049;-79
2022/11/11 03:31:27;;;;;;;25.50;16.45;;;;;;;9.51;99.61;102850.97;5091387;28;20056;-80
2022/11/11 03:34:18;;;;;;;24.75;16.10;;;;;;;9.48;99.93;102851.75;5092599;28;20135;-79
2022/11/11 03:40:09;;;;;;;20.95;14.60;;;;;;;9.47;99.89;102857.44;5091823;28;20052;-79
2022/11/11 03:42:54;;;;;;;34.38;15.75;;;;;;;9.45;99.98;102860.47;5088589;28;20059;-79
2022/11/11 03:45:49;;;;;;;22.20;14.93;;;;;;;9.45;99.94;102859.72;5090458;28;20147;-79
2022/11/11 03:48:34;;;;;;;24.17;14.80;;;;;;;9.46;100.00;102862.00;5092482;28;20044;-79
2022/11/11 03:51:19;;;;;;;23.92;15.70;;;;;;;9.46;100.00;102867.31;5090102;28;20048;-79
2022/11/11 03:54:04;;;;;;;25.40;15.13;;;;;;;9.45;100.00;102865.78;5092027;28;20520;-80
2022/11/11 03:56:49;;;;;;;24.42;16.50;;;;;;;9.46;100.00;102874.53;5095241;28;20052;-80
2022/11/11 03:59:34;;;;;;;23.10;14.90;;;;;;;9.46;100.00;102877.94;5093642;28;20044;-79
2022/11/11 04:11:33;;;;;;;22.35;14.70;;;;;;;9.47;99.87;102886.69;5095616;28;20052;-79
2022/11/11 04:17:22;;;;;;;22.00;15.25;;;;;;;9.46;100.00;102880.59;5094570;28;20053;-79
2022/11/11 04:23:12;;;;;;;22.98;14.25;;;;;;;9.45;100.00;102875.66;5095400;28;20044;-79
2022/11/11 04:25:59;;;;;;;21.52;14.00;;;;;;;9.45;100.00;102867.69;5094763;28;20045;-79
2022/11/11 04:34:55;;;;;;;23.30;13.75;;;;;;;9.45;100.00;102862.38;5092402;28;20131;-79
2022/11/11 04:41:02;;;;;;;19.30;13.35;;;;;;;9.43;100.00;102862.00;5093486;28;20420;-79
2022/11/11 04:41:02;;;;;;;20.73;13.50;;;;;;;9.41;100.00;102861.63;5092284;28;20053;-79
2022/11/11 04:46:51;;;;;;;19.05;13.88;;;;;;;9.38;100.00;102852.50;5094555;28;20123;-79
2022/11/11 04:49:36;;;;;;;20.08;13.45;;;;;;;9.36;100.00;102846.81;5092723;28;20049;-79
2022/11/11 04:52:27;;;;;;;21.83;14.13;;;;;;;9.34;100.00;102838.44;5093826;28;20045;-79
2022/11/11 04:58:20;;;;;;;16.45;12.23;;;;;;;9.33;100.00;102842.25;5092123;28;20048;-79
2022/11/11 05:01:05;;;;;;;20.58;12.70;;;;;;;9.31;99.78;102841.84;5092656;28;20045;-79
2022/11/11 05:03:50;;;;;;;20.63;12.65;;;;;;;9.31;100.00;102841.84;5091236;28;20045;-79
2022/11/11 05:09:43;;;;;;;19.80;12.55;;;;;;;9.30;99.98;102833.13;5094214;28;20045;-79
2022/11/11 05:12:28;;;;;;;20.33;13.80;;;;;;;9.28;100.00;102824.00;5091837;28;20436;-79
2022/11/11 05:21:25;;;;;;;21.05;12.57;;;;;;;9.24;100.00;102816.03;5093078;28;20048;-79
2022/11/11 05:27:14;;;;;;;20.23;13.07;;;;;;;9.18;100.00;102814.91;5090865;28;20110;-79
2022/11/11 05:29:59;;;;;;;15.50;12.52;;;;;;;9.15;100.00;102815.66;5092943;28;20053;-79
2022/11/11 05:32:45;;;;;;;19.65;12.10;;;;;;;9.11;100.00;102822.13;5093958;28;20080;-79
2022/11/11 05:35:30;;;;;;;23.20;13.07;;;;;;;9.09;100.00;102827.06;5090765;28;20048;-79
2022/11/11 05:38:20;;;;;;;22.25;13.10;;;;;;;9.07;100.00;102832.75;5093404;28;20053;-79
2022/11/11 05:41:07;;;;;;;18.40;12.93;;;;;;;9.05;100.00;102834.25;5094034;28;20712;-79
2022/11/11 05:43:52;;;;;;;19.98;12.52;;;;;;;8.99;100.00;102831.22;5092104;28;20516;-79
2022/11/11 05:46:37;;;;;;;21.50;12.68;;;;;;;8.96;100.00;102827.41;5093071;28;20044;-79
2022/11/11 05:49:24;;;;;;;16.63;12.40;;;;;;;8.93;100.00;102828.16;5093792;28;20057;-79
2022/11/11 05:52:10;;;;;;;16.13;12.30;;;;;;;8.90;100.00;102833.47;5090402;28;20049;-79
2022/11/11 05:54:55;;;;;;;14.57;12.48;;;;;;;8.88;100.00;102831.19;5092826;28;20053;-79
2022/11/11 05:57:40;;;;;;;17.27;12.15;;;;;;;8.87;100.00;102834.97;5092826;28;20493;-79
2022/11/11 06:00:25;;;;;;;18.70;12.45;;;;;;;8.86;100.00;102844.06;5091865;28;20044;-79
2022/11/11 06:03:10;;;;;;;18.48;12.50;;;;;;;8.86;100.00;102851.28;5092524;28;20096;-79
2022/11/11 06:05:55;;;;;;;20.67;12.85;;;;;;;8.86;100.00;102852.03;5093499;28;20044;-79
2022/11/11 06:08:41;;;;;;;17.40;12.50;;;;;;;8.84;100.00;102856.22;5091700;28;20067;-79
2022/11/11 06:11:27;;;;;;;17.50;11.98;;;;;;;8.81;100.00;102863.03;5091886;28;20048;-79
2022/11/11 06:14:16;;;;;;;18.17;12.30;;;;;;;8.79;100.00;102859.25;5092870;28;20052;-80
2022/11/11 06:17:01;;;;;;;20.13;12.65;;;;;;;8.76;100.00;102868.72;5090386;28;20045;-79
2022/11/11 06:19:46;;;;;;;16.25;12.38;;;;;;;8.75;100.00;102869.09;5092255;28;20621;-79
2022/11/11 06:28:46;;;;;;;18.95;12.93;;;;;;;8.67;100.00;102871.72;5092688;28;20053;-79
2022/11/11 06:31:31;;;;;;;27.85;12.30;;;;;;;8.65;100.00;102883.88;5091043;28;20053;-79
2022/11/11 06:34:16;;;;;;;19.13;13.05;;;;;;;8.64;100.00;102893.72;5091421;28;20052;-79
2022/11/11 06:37:01;;;;;;;16.45;12.45;;;;;;;8.65;100.00;102902.44;5092466;28;20472;-79
2022/11/11 06:39:46;;;;;;;22.27;12.80;;;;;;;8.64;100.00;102903.56;5089949;28;20045;-79
2022/11/11 06:42:35;;;;;;;19.20;13.48;;;;;;;8.63;100.00;102904.72;5091680;28;20049;-79
2022/11/11 06:45:20;;;;;;;21.00;13.57;;;;;;;8.64;100.00;102907.00;5092271;28;20044;-80
2022/11/11 06:48:06;;;;;;;24.95;13.45;;;;;;;8.64;100.00;102912.31;5090271;28;20056;-79
2022/11/11 06:50:52;;;;;;;18.48;13.18;;;;;;;8.68;100.00;102920.28;5091524;28;20119;-79
2022/11/11 06:53:37;;;;;;;16.50;12.90;;;;;;;8.69;100.00;102916.50;5091866;28;20052;-80
2022/11/11 06:56:22;;;;;;;17.80;12.70;;;;;;;8.71;100.00;102919.53;5090163;28;20110;-79
2022/11/11 06:59:07;;;;;;;18.00;13.80;;;;;;;8.70;100.00;102928.66;5090711;28;20460;-79
2022/11/11 07:01:51;;;;;;;18.20;13.13;;;;;;;8.72;100.00;102931.69;5092281;28;20045;-79
2022/11/11 07:04:36;;;;;;;20.20;13.27;;;;;;;8.74;100.00;102929.44;5092479;28;20052;-80
2022/11/11 07:07:22;;;;;;;26.73;14.05;;;;;;;8.74;100.00;102932.09;5090872;28;20056;-79
2022/11/11 07:10:09;;;;;;;21.85;14.13;;;;;;;8.77;100.00;102931.34;5091256;28;20131;-79
2022/11/11 07:12:54;;;;;;;20.25;13.18;;;;;;;8.78;100.00;102946.13;5092772;28;20052;-80
2022/11/11 07:15:41;;;;;;;22.13;13.18;;;;;;;8.78;100.00;102943.47;5090886;28;20392;-80
2022/11/11 07:18:26;;;;;;;18.98;13.65;;;;;;;8.81;100.00;102948.03;5090612;28;20092;-79
2022/11/11 07:21:12;;;;;;;22.38;13.63;;;;;;;8.80;100.00;102954.47;5092256;28;20053;-80
2022/11/11 07:23:57;;;;;;;22.35;12.35;;;;;;;8.81;100.00;102952.56;5090695;28;20505;-81
2022/11/11 07:26:41;;;;;;;20.85;13.38;;;;;;;8.79;100.00;102960.94;5092518;28;20517;-83
2022/11/11 07:29:28;;;;;;;19.63;13.45;;;;;;;8.80;100.00;102964.31;5094629;28;20586;-82
2022/11/11 07:32:16;;;;;;;26.50;12.88;;;;;;;8.82;100.00;102968.13;5094008;28;20861;-84
2022/11/11 07:35:01;;;;;;;17.40;12.60;;;;;;;8.84;100.00;102967.75;5094767;28;20473;-81
2022/11/11 07:37:46;;;;;;;17.73;12.02;;;;;;;8.82;100.00;102965.47;5094986;28;20044;-81
2022/11/11 07:40:31;;;;;;;19.45;12.73;;;;;;;8.84;100.00;102978.38;5092946;28;20468;-82
2022/11/11 07:43:16;;;;;;;19.73;12.18;;;;;;;8.82;100.00;102973.44;5095387;28;20052;-82
2022/11/11 07:46:01;;;;;;;22.80;12.10;;;;;;;8.84;100.00;102975.72;5096084;28;20048;-82
2022/11/11 07:48:46;;;;;;;17.48;12.68;;;;;;;8.86;100.00;102976.88;5094256;28;20123;-81
2022/11/11 07:51:31;;;;;;;25.70;11.52;;;;;;;8.86;100.00;102979.53;5094086;28;20096;-79
2022/11/11 07:54:16;;;;;;;19.00;12.23;;;;;;;8.86;99.98;102976.88;5095993;28;20052;-81
2022/11/11 07:57:01;;;;;;;17.27;11.50;;;;;;;8.88;100.00;102977.28;5093831;28;20048;-80
2022/11/11 07:59:46;;;;;;;18.38;12.20;;;;;;;8.86;100.00;102981.44;5094697;28;20045;-85
2022/11/11 08:02:32;;;;;;;20.63;12.20;;;;;;;8.88;100.00;102974.63;5095767;28;20114;-82
2022/11/11 08:05:17;;;;;;;16.95;11.45;;;;;;;8.88;100.00;102971.97;5093723;28;20048;-81
2022/11/11 08:08:07;;;;;;;18.50;12.02;;;;;;;8.88;99.88;102982.59;5094115;28;20052;-81
2022/11/11 08:10:53;;;;;;;19.27;11.90;;;;;;;8.87;99.70;102980.28;5095317;28;20176;-82
2022/11/11 08:13:39;;;;;;;16.95;12.25;;;;;;;8.88;99.84;102987.91;5093654;28;20048;-81
2022/11/11 08:16:24;;;;;;;20.13;11.75;;;;;;;8.87;99.57;102989.03;5094211;28;20053;-81
2022/11/11 08:19:09;;;;;;;21.10;12.05;;;;;;;8.88;99.45;102993.22;5095237;28;20056;-82
2022/11/11 08:21:54;;;;;;;22.42;12.20;;;;;;;8.88;99.52;102995.09;5092879;28;20546;-81
2022/11/11 08:24:39;;;;;;;15.77;12.57;;;;;;;8.91;99.78;103003.09;5094242;28;20053;-81
2022/11/11 08:27:43;;;;;;;17.95;11.73;;;;;;;8.94;99.55;102998.94;5095075;28;20037;-81
2022/11/11 08:30:30;;;;;;;19.02;10.55;;;;;;;8.92;99.32;103003.84;5107374;28;20049;-79
2022/11/11 08:33:15;;;;;;;19.05;12.75;;;;;;;8.94;99.52;103002.34;5094412;28;20139;-82
2022/11/11 08:36:18;;;;;;;14.50;11.02;;;;;;;8.93;99.33;103000.06;5095098;28;20179;-82
2022/11/11 08:39:05;;;;;;;15.68;11.27;;;;;;;8.97;99.48;103004.25;5093525;28;20041;-83
2022/11/11 08:41:50;;;;;;;16.27;11.15;;;;;;;9.05;99.44;103009.59;5095681;28;20048;-82
2022/11/11 08:44:35;;;;;;;14.52;11.95;;;;;;;9.08;99.11;102998.22;5095282;28;20044;-81
2022/11/11 08:47:21;;;;;;;12.93;10.73;;;;;;;9.08;99.17;102996.34;5093541;28;20049;-81
2022/11/11 08:50:07;;;;;;;14.68;11.07;;;;;;;9.09;98.73;103007.72;5094266;28;20052;-81
2022/11/11 08:52:52;;;;;;;13.98;10.57;;;;;;;9.12;98.58;103010.41;5094410;28;20049;-81
2022/11/11 08:55:37;;;;;;;16.10;11.05;;;;;;;9.17;98.68;103011.94;5093350;28;20048;-81
2022/11/11 08:58:22;;;;;;;21.88;11.40;;;;;;;9.20;98.45;103016.47;5094444;28;20141;-82
2022/11/11 09:01:14;;;;;;;15.73;10.93;;;;;;;9.27;98.73;103014.63;5095222;28;20056;-81
2022/11/11 09:03:59;;;;;;;;;;;;;;;9.32;98.74;103016.91;5093699;28;20097;-82
2022/11/11 09:07:06;;;;;;;17.58;10.70;;;;;;;9.34;98.07;103019.19;5094449;28;19983;-80
2022/11/11 09:09:51;;;;;;;16.80;11.07;;;;;;;9.34;97.95;103019.19;5092936;28;20049;-82
2022/11/11 09:12:36;;;;;;;15.57;10.93;;;;;;;9.38;97.91;103032.50;5091642;28;20064;-82
2022/11/11 09:15:22;;;;;;;20.70;12.75;;;;;;;9.40;97.91;103022.25;5094341;28;20044;-82
2022/11/11 09:18:09;;;;;;;20.95;11.63;;;;;;;9.43;97.68;103029.47;5092807;28;20049;-82
2022/11/11 09:20:57;;;;;;;17.95;10.75;;;;;;;9.42;97.62;103036.69;5093017;28;20477;-81
2022/11/11 09:23:42;;;;;;;15.40;11.95;;;;;;;9.43;97.44;103032.91;5094536;28;20049;-81
2022/11/11 09:26:27;;;;;;;15.20;10.20;;;;;;;9.47;96.95;103035.56;5092527;28;20045;-79
2022/11/11 09:29:12;;;;;;;15.88;11.40;;;;;;;9.50;97.32;103034.81;5092923;28;20052;-80
2022/11/11 09:31:57;;;;;;;18.38;12.15;;;;;;;9.53;97.09;103036.72;5094079;28;20521;-85
2022/11/11 09:34:42;;;;;;;14.05;10.80;;;;;;;9.59;97.33;103037.88;5104670;28;20107;-82
2022/11/11 09:37:27;;;;;;;20.98;11.30;;;;;;;9.61;96.67;103041.66;5093021;28;20523;-83
2022/11/11 09:40:20;;;;;;;18.30;11.55;;;;;;;9.67;96.99;103050.03;5093485;28;20048;-82
2022/11/11 09:43:23;;;;;;;18.23;12.77;;;;;;;9.72;97.03;103046.25;5092088;28;20218;-83
2022/11/11 09:46:21;;;;;;;21.90;14.18;;;;;;;9.82;96.57;103050.84;5093051;28;20524;-83
2022/11/11 09:49:27;;;;;;;16.60;11.40;;;;;;;9.85;96.35;103056.16;5094154;28;20048;-84
2022/11/11 09:52:21;;;;;;;17.33;11.75;;;;;;;9.82;95.89;103058.81;5091789;28;20485;-84
2022/11/11 09:55:18;;;;;;;20.77;12.13;;;;;;;9.79;95.93;103056.91;5094333;28;20056;-86
2022/11/11 09:58:11;;;;;;;21.30;13.18;;;;;;;9.81;95.81;103059.97;5072090;28;20053;-88
2022/11/11 10:01:17;;;;;;;17.73;13.05;;;;;;;9.86;95.63;103057.69;5073078;28;20049;-79
2022/11/11 10:04:29;;;;;;;276.80;203.27;;;;;;;9.90;95.69;103057.69;5070920;28;20061;-79
2022/11/11 10:07:33;;;;;;;19.05;15.40;;;;;;;9.97;95.42;103047.81;5073184;28;20057;-81
2022/11/11 10:10:41;;;;;;;17.45;13.68;;;;;;;10.08;95.30;103053.13;5071108;28;20061;-81
2022/11/11 10:13:29;;;;;;;21.80;14.38;;;;;;;10.17;94.56;103045.53;5073084;28;20478;-82
2022/11/11 10:16:32;;;;;;;21.08;12.82;;;;;;;10.17;94.30;103040.22;5073887;28;20453;-80
2022/11/11 10:19:29;;;;;;;20.30;13.07;;;;;;;10.13;94.57;103050.09;5072058;28;20060;-80
2022/11/11 10:22:24;;;;;;;19.88;13.07;;;;;;;10.17;94.39;103055.44;5072916;28;20135;-79
2022/11/11 10:25:12;;;;;;;15.63;10.85;;;;;;;10.21;93.64;103056.97;5071440;28;20080;-80
2022/11/11 10:28:00;;;;;;;22.30;13.85;;;;;;;10.30;93.88;103057.38;5072673;28;20045;-79
2022/11/11 10:30:48;;;;;;;14.05;12.27;;;;;;;10.39;93.02;103064.22;5072718;28;20108;-81
2022/11/11 10:33:45;;;;;;;15.48;11.40;;;;;;;10.46;93.18;103072.16;5071281;28;20049;-81
2022/11/11 10:36:31;;;;;;;14.23;11.18;;;;;;;10.51;92.75;103064.56;5072829;28;20053;-79
2022/11/11 10:39:30;;;;;;;17.45;10.48;;;;;;;10.52;92.24;103070.66;5070658;28;20502;-82
2022/11/11 10:42:17;;;;;;;17.42;11.48;;;;;;;10.50;92.56;103073.69;5071523;28;20053;-76
2022/11/11 10:45:12;;;;;;;18.88;12.65;;;;;;;10.49;92.54;103079.41;5072605;28;20502;-81
2022/11/11 10:48:04;;;;;;;18.95;13.13;;;;;;;10.52;92.18;103076.72;5073798;28;20049;-82
2022/11/11 10:50:55;;;;;;;20.58;12.73;;;;;;;10.54;92.30;103085.09;5091672;28;20125;-82
2022/11/11 10:53:55;;;;;;;16.38;11.85;;;;;;;10.62;92.35;103077.88;5086318;28;20053;-81
2022/11/11 10:56:49;;;;;;;17.30;12.13;;;;;;;10.67;91.80;103080.16;5088739;28;20515;-81
2022/11/11 10:59:42;;;;;;;14.77;11.10;;;;;;;10.73;91.69;103086.63;5091377;28;20056;-81
2022/11/11 11:02:37;;;;;;;19.50;12.07;;;;;;;10.75;91.56;103084.31;5088467;28;20044;-80
2022/11/11 11:05:39;;;;;;;17.60;12.07;;;;;;;10.79;91.96;103077.09;5092872;28;20053;-81
2022/11/11 11:08:30;;;;;;;14.18;11.70;;;;;;;10.89;91.59;103072.84;5096179;28;20049;-85
2022/11/11 11:11:35;;;;;;;17.02;11.98;;;;;;;10.96;91.12;103064.84;5096727;28;20726;-79
2022/11/11 11:14:32;;;;;;;16.23;12.02;;;;;;;11.01;90.85;103067.88;5096258;28;20056;-82
2022/11/11 11:17:36;;;;;;;19.92;12.15;;;;;;;11.06;90.56;103060.63;5095921;28;20040;-82
2022/11/11 11:20:21;;;;;;;16.83;12.60;;;;;;;11.02;90.34;103057.97;5096924;28;20053;-82
2022/11/11 11:23:06;;;;;;;17.17;11.90;;;;;;;10.98;90.64;103060.66;5094501;28;20052;-82
2022/11/11 11:25:55;;;;;;;15.10;13.00;;;;;;;11.02;90.20;103063.31;5095070;28;20497;-82
2022/11/11 11:28:58;;;;;;;14.70;12.48;;;;;;;11.07;90.44;103056.81;5095176;28;20093;-81
2022/11/11 11:31:46;;;;;;;16.27;12.25;;;;;;;11.11;90.22;103060.25;5093946;28;20084;-82
2022/11/11 11:34:43;;;;;;;17.75;12.52;;;;;;;11.19;90.24;103056.41;5094176;28;20060;-82
2022/11/11 11:37:27;;;;;;;18.55;11.82;;;;;;;11.21;89.68;103060.19;5095815;28;20500;-78
2022/11/11 11:40:13;;;;;;;13.98;11.95;;;;;;;11.26;89.96;103054.44;5093656;28;20528;-82
2022/11/11 11:42:59;;;;;;;13.98;11.70;;;;;;;11.31;89.21;103053.28;5094614;28;20123;-81
2022/11/11 11:45:54;;;;;;;15.70;12.27;;;;;;;11.35;89.46;103054.78;5095220;28;20049;-79
2022/11/11 11:49:24;;;;;;;13.63;11.90;;;;;;;11.37;88.90;103051.72;5094264;28;20053;-81
2022/11/11 11:52:25;;;;;;;16.20;11.13;;;;;;;11.36;88.60;103050.97;5092409;28;20076;-83
2022/11/11 11:55:21;;;;;;;17.83;11.45;;;;;;;11.38;88.97;103050.59;5094323;28;20049;-84
2022/11/11 11:58:56;;;;;;;14.32;11.38;;;;;;;11.37;88.89;103046.41;5094417;28;20572;-81
2022/11/11 12:01:59;;;;;;;16.85;11.27;;;;;;;11.34;88.42;103042.59;5094570;28;20048;-81
2022/11/11 12:05:17;;;;;;;14.82;10.77;;;;;;;11.30;88.42;103041.84;5093025;28;20223;-82
2022/11/11 12:08:20;;;;;;;11.40;10.23;;;;;;;11.22;88.59;103047.59;5093938;28;20480;-81
2022/11/11 12:11:28;;;;;;;11.95;10.75;;;;;;;11.20;88.58;103045.31;5092963;28;20641;-82
2022/11/11 12:14:50;;;;;;;13.88;11.05;;;;;;;11.17;88.63;103045.38;5092988;28;20052;-82
2022/11/11 12:18:03;;;;;;;12.82;11.35;;;;;;;11.19;88.67;103046.50;5092540;28;20056;-82
2022/11/11 12:20:56;;;;;;;16.73;12.93;;;;;;;11.19;88.65;103043.06;5086492;28;20466;-82
2022/11/11 12:23:44;;;;;;;17.80;11.88;;;;;;;11.21;89.23;103046.09;5093451;28;20461;-82
2022/11/11 12:27:03;;;;;;;16.88;11.52;;;;;;;11.23;88.85;103038.47;5094020;28;20589;-82
2022/11/11 12:30:01;;;;;;;17.05;12.25;;;;;;;11.19;88.86;103035.06;5091791;28;20049;-82
2022/11/11 12:33:06;;;;;;;23.08;12.52;;;;;;;11.17;89.31;103038.13;5093608;28;20076;-82
2022/11/11 12:36:09;;;;;;;16.15;12.00;;;;;;;11.18;88.71;103041.56;5094849;28;20052;-81
2022/11/11 12:38:58;;;;;;;14.70;11.95;;;;;;;11.17;88.77;103040.03;5093318;28;20044;-82
2022/11/11 12:41:55;;;;;;;15.63;12.25;;;;;;;11.24;89.10;103035.41;5094063;28;20604;-82
2022/11/11 12:44:52;;;;;;;17.40;11.68;;;;;;;11.31;88.63;103040.72;5092986;28;20048;-82
2022/11/11 12:47:52;;;;;;;16.23;12.50;;;;;;;11.36;88.61;103034.97;5095088;28;20053;-81
2022/11/11 12:50:50;;;;;;;15.73;12.68;;;;;;;11.42;88.58;103032.66;5092261;28;20105;-82
2022/11/11 12:53:58;;;;;;;18.63;13.20;;;;;;;11.48;87.61;103038.34;5093653;28;20056;-82
2022/11/11 12:57:01;;;;;;;15.60;12.80;;;;;;;11.50;88.13;103033.38;5093327;28;20044;-82
2022/11/11 13:00:00;;;;;;;15.75;11.40;;;;;;;11.54;87.93;103024.22;5093081;28;20103;-82
2022/11/11 13:03:14;;;;;;;18.10;11.65;;;;;;;11.59;87.88;103029.16;5094541;28;20044;-82
2022/11/11 13:06:27;;;;;;;13.55;11.20;;;;;;;11.63;87.62;103027.19;5091709;28;20053;-82
2022/11/11 13:09:51;;;;;;;16.70;11.57;;;;;;;11.58;87.17;103022.28;5094475;28;20433;-82
2022/11/11 13:13:01;;;;;;;17.02;11.77;;;;;;;11.61;87.48;103031.41;5090646;28;20053;-82
2022/11/11 13:15:47;;;;;;;14.65;11.63;;;;;;;11.59;86.70;103023.81;5092095;28;20041;-84
2022/11/11 13:18:59;;;;;;;13.93;11.70;;;;;;;11.60;87.41;103024.53;5092853;28;20091;-82
2022/11/11 13:21:53;;;;;;;15.27;11.48;;;;;;;11.60;86.71;103024.53;5094290;28;21012;-82
2022/11/11 13:24:38;;;;;;;14.40;11.65;;;;;;;11.57;87.21;103028.78;5092885;28;20044;-82
2022/11/11 13:27:59;;;;;;;20.67;12.55;;;;;;;11.57;87.13;103025.34;5092953;28;20551;-82
2022/11/11 13:31:08;;;;;;;14.60;11.40;;;;;;;11.57;87.17;103020.00;5083996;28;20061;-82
2022/11/11 13:33:57;;;;;;;14.48;11.68;;;;;;;11.57;86.79;103026.09;5093186;28;20045;-82
2022/11/11 13:36:49;;;;;;;14.77;10.95;;;;;;;11.57;87.06;103025.34;5090832;28;20045;-82
2022/11/11 13:39:47;;;;;;;15.27;11.43;;;;;;;11.58;87.10;103027.63;5092778;28;20540;-83
2022/11/11 13:42:47;;;;;;;18.45;11.40;;;;;;;11.61;86.75;103026.81;5091328;28;20114;-82
2022/11/11 13:45:38;;;;;;;12.70;11.43;;;;;;;11.62;86.60;103027.56;5092581;28;20221;-81
2022/11/11 13:48:48;;;;;;;16.05;11.35;;;;;;;11.66;87.02;103025.66;5092478;28;20049;-82
2022/11/11 13:51:41;;;;;;;12.68;10.48;;;;;;;11.67;86.60;103029.84;5093228;28;20453;-82
2022/11/11 13:54:31;;;;;;;13.73;9.95;;;;;;;11.68;86.27;103026.03;5092249;28;20358;-81
2022/11/11 13:57:19;;;;;;;17.35;9.57;;;;;;;11.68;86.40;103026.03;5081221;28;20591;-82
2022/11/11 14:00:22;;;;;;;12.77;9.65;;;;;;;11.67;85.83;103025.25;5071323;28;20056;-82
2022/11/11 14:03:16;;;;;;;11.48;10.27;;;;;;;11.70;86.07;103021.81;5072644;28;20473;-82
2022/11/11 14:06:28;;;;;;;11.30;10.02;;;;;;;11.72;85.88;103026.00;5071091;28;20522;-81
2022/11/11 14:09:51;;;;;;;15.52;10.45;;;;;;;11.75;86.30;103025.97;5072260;28;20049;-82
2022/11/11 14:12:40;;;;;;;10.27;9.13;;;;;;;11.76;86.42;103026.72;5071572;28;20132;-82
2022/11/11 14:15:42;;;;;;;13.93;9.77;;;;;;;11.75;85.81;103020.63;5071602;28;20096;-81
2022/11/11 14:18:37;;;;;;;11.07;9.68;;;;;;;11.76;85.70;103018.72;5070836;28;20048;-82
2022/11/11 14:21:58;;;;;;;14.65;9.23;;;;;;;11.76;86.10;103016.06;5072188;28;20480;-80
2022/11/11 14:24:45;;;;;;;12.70;9.50;;;;;;;11.77;85.35;103022.94;5070587;28;20061;-81
2022/11/11 14:27:32;;;;;;;11.57;9.50;;;;;;;11.75;86.00;103022.53;5072013;28;20053;-81
2022/11/11 14:30:33;;;;;;;10.80;9.15;;;;;;;11.76;86.08;103024.81;5084756;28;20177;-80